Time;durP1;ratioP1;P1;durP2;ratioP2;P2;SDS_P1;SDS_P2;PMS_P1;PMS_P2;Temp;Humidity;BMP_temperature;BMP_pressure;BME280_temperature;BME280_humidity;BME280_pressure;Samples;Min_cycle;Max_cycle;Signal;HPM_P1;HPM_P2
2021/06/19 00:00:29;;;;;;;2.75;2.55;;;;;;;;;;5025528;28;20166;-78
2021/06/19 00:02:55;;;;;;;2.47;2.28;;;;;;;;;;5020495;28;20179;-78
2021/06/19 00:05:21;;;;;;;3.03;2.83;;;;;;;;;;5018592;28;20261;-78
2021/06/19 00:07:47;;;;;;;2.50;2.30;;;;;;;;;;5023295;28;20183;-78
2021/06/19 00:10:14;;;;;;;3.20;2.90;;;;;;;;;;5022580;28;20683;-78
2021/06/19 00:12:40;;;;;;;3.08;2.88;;;;;;;;;;5023051;28;20615;-78
2021/06/19 00:15:08;;;;;;;2.25;2.15;;;;;;;;;;5020268;28;20179;-78
2021/06/19 00:17:35;;;;;;;6.65;2.40;;;;;;;;;;5020492;28;20186;-78
2021/06/19 00:20:01;;;;;;;2.10;2.00;;;;;;;;;;5018992;28;20183;-78
2021/06/19 00:22:27;;;;;;;2.60;2.30;;;;;;;;;;5010261;28;20249;-78
2021/06/19 00:24:53;;;;;;;3.27;2.30;;;;;;;;;;5020166;28;20191;-78
2021/06/19 00:27:19;;;;;;;2.55;2.35;;;;;;;;;;5037976;28;20424;-78
2021/06/19 00:29:45;;;;;;;2.85;2.42;;;;;;;;;;5011476;28;20349;-78
2021/06/19 00:32:11;;;;;;;5.27;2.40;;;;;;;;;;5015447;28;20182;-78
2021/06/19 00:34:37;;;;;;;3.20;2.77;;;;;;;;;;5021964;28;20447;-78
2021/06/19 00:37:03;;;;;;;3.67;2.20;;;;;;;;;;5022451;28;20429;-78
2021/06/19 00:39:29;;;;;;;2.88;2.67;;;;;;;;;;5024096;28;20430;-78
2021/06/19 00:41:55;;;;;;;3.00;2.40;;;;;;;;;;5019346;28;20277;-78
2021/06/19 00:44:22;;;;;;;5.17;2.33;;;;;;;;;;5016296;28;20191;-78
2021/06/19 00:46:51;;;;;;;2.33;2.00;;;;;;;;;;5022344;28;20443;-78
2021/06/19 00:49:17;;;;;;;4.18;3.30;;;;;;;;;;5022334;28;20696;-78
2021/06/19 00:51:44;;;;;;;3.20;2.90;;;;;;;;;;5023789;28;20190;-78
2021/06/19 00:54:10;;;;;;;6.00;2.40;;;;;;;;;;5021683;28;20175;-78
2021/06/19 00:56:37;;;;;;;3.35;2.65;;;;;;;;;;5018716;28;20191;-79
2021/06/19 00:59:04;;;;;;;5.15;2.83;;;;;;;;;;5014084;28;20201;-78
2021/06/19 01:01:30;;;;;;;5.20;2.50;;;;;;;;;;5021309;28;20178;-79
2021/06/19 01:03:56;;;;;;;3.20;3.00;;;;;;;;;;5019871;28;20243;-78
2021/06/19 01:06:22;;;;;;;2.80;2.60;;;;;;;;;;5039417;28;20246;-79
2021/06/19 01:08:48;;;;;;;2.67;2.30;;;;;;;;;;5018151;28;20234;-79
2021/06/19 01:11:15;;;;;;;3.92;2.67;;;;;;;;;;5015037;28;20443;-79
2021/06/19 01:13:41;;;;;;;3.38;2.00;;;;;;;;;;5022060;28;20235;-79
2021/06/19 01:16:07;;;;;;;3.03;2.63;;;;;;;;;;5019734;28;20206;-78
2021/06/19 01:18:33;;;;;;;2.63;2.47;;;;;;;;;;5022381;28;20568;-78
2021/06/19 01:20:59;;;;;;;3.00;2.80;;;;;;;;;;5036506;28;20409;-78
2021/06/19 01:23:24;;;;;;;2.30;2.20;;;;;;;;;;5018718;28;20479;-78
2021/06/19 01:25:50;;;;;;;3.47;2.73;;;;;;;;;;5020490;28;20460;-78
2021/06/19 01:28:16;;;;;;;3.93;2.67;;;;;;;;;;5020998;28;20492;-78
2021/06/19 01:30:42;;;;;;;2.70;2.30;;;;;;;;;;5023147;28;20418;-79
2021/06/19 01:33:08;;;;;;;2.70;2.50;;;;;;;;;;5025052;28;20421;-79
2021/06/19 01:35:36;;;;;;;2.70;2.40;;;;;;;;;;5022642;28;20306;-79
2021/06/19 01:38:02;;;;;;;3.42;3.13;;;;;;;;;;5018710;28;20252;-79
2021/06/19 01:40:29;;;;;;;2.55;2.35;;;;;;;;;;5024280;28;20183;-79
2021/06/19 01:42:56;;;;;;;2.90;2.70;;;;;;;;;;5023757;28;20194;-79
2021/06/19 01:45:22;;;;;;;2.53;2.42;;;;;;;;;;5027194;28;20182;-79
2021/06/19 01:47:48;;;;;;;2.80;2.70;;;;;;;;;;5022627;28;20222;-79
2021/06/19 01:50:16;;;;;;;2.78;2.50;;;;;;;;;;5021380;28;20827;-79
2021/06/19 01:52:42;;;;;;;2.25;2.15;;;;;;;;;;5023789;28;20253;-79
2021/06/19 01:55:08;;;;;;;2.13;2.03;;;;;;;;;;5023315;28;20191;-79
2021/06/19 01:57:38;;;;;;;2.38;2.17;;;;;;;;;;5026324;28;20785;-78
2021/06/19 02:00:10;;;;;;;2.20;2.00;;;;;;;;;;5027069;28;20174;-78
2021/06/19 02:02:40;;;;;;;2.90;2.35;;;;;;;;;;5021814;28;20187;-78
2021/06/19 02:05:07;;;;;;;2.80;2.20;;;;;;;;;;5016804;28;20209;-79
2021/06/19 02:07:33;;;;;;;4.47;2.20;;;;;;;;;;5025520;28;20637;-77
2021/06/19 02:09:59;;;;;;;2.70;2.50;;;;;;;;;;5023457;28;20199;-78
2021/06/19 02:12:25;;;;;;;3.47;2.50;;;;;;;;;;5023365;28;20187;-78
2021/06/19 02:14:51;;;;;;;2.57;2.37;;;;;;;;;;5022665;28;20213;-78
2021/06/19 02:17:17;;;;;;;2.40;2.30;;;;;;;;;;5025401;28;20433;-78
2021/06/19 02:19:44;;;;;;;3.93;2.80;;;;;;;;;;5023378;28;20465;-78
2021/06/19 02:22:10;;;;;;;2.80;2.60;;;;;;;;;;5026019;28;20453;-78
2021/06/19 02:24:36;;;;;;;2.83;2.33;;;;;;;;;;5025620;28;20182;-78
2021/06/19 02:27:08;;;;;;;7.23;2.67;;;;;;;;;;5024286;28;20206;-78
2021/06/19 02:29:34;;;;;;;3.35;3.15;;;;;;;;;;5023306;28;20965;-78
2021/06/19 02:32:00;;;;;;;2.70;2.60;;;;;;;;;;5021714;28;20210;-78
2021/06/19 02:34:26;;;;;;;2.40;2.30;;;;;;;;;;5012624;28;20471;-78
2021/06/19 02:36:52;;;;;;;5.73;3.20;;;;;;;;;;5022702;28;20434;-78
2021/06/19 02:39:19;;;;;;;3.00;2.70;;;;;;;;;;5041184;28;20429;-78
2021/06/19 02:41:45;;;;;;;3.05;2.75;;;;;;;;;;5023320;28;20448;-78
2021/06/19 02:44:11;;;;;;;3.53;2.83;;;;;;;;;;5021808;28;20187;-78
2021/06/19 02:46:37;;;;;;;3.90;2.88;;;;;;;;;;5022105;28;20843;-78
2021/06/19 02:49:03;;;;;;;3.03;2.63;;;;;;;;;;5023519;28;20238;-78
2021/06/19 02:51:29;;;;;;;6.10;2.60;;;;;;;;;;5027100;28;20424;-77
2021/06/19 02:53:55;;;;;;;2.95;2.75;;;;;;;;;;5035318;28;20982;-78
2021/06/19 02:56:21;;;;;;;2.90;2.70;;;;;;;;;;5032990;28;20194;-78
2021/06/19 02:58:47;;;;;;;3.40;2.53;;;;;;;;;;5023272;28;20448;-78
2021/06/19 03:01:13;;;;;;;3.50;2.50;;;;;;;;;;5024515;28;20186;-78
2021/06/19 03:03:39;;;;;;;4.87;2.53;;;;;;;;;;5023047;28;20433;-78
2021/06/19 03:06:05;;;;;;;2.80;2.60;;;;;;;;;;5024526;28;20837;-78
2021/06/19 03:08:31;;;;;;;2.93;2.70;;;;;;;;;;5023301;28;20580;-77
2021/06/19 03:10:57;;;;;;;3.35;2.55;;;;;;;;;;5022610;28;20437;-77
2021/06/19 03:13:23;;;;;;;2.50;2.30;;;;;;;;;;5023912;28;20260;-78
2021/06/19 03:15:49;;;;;;;2.90;2.60;;;;;;;;;;5022856;28;20190;-78
2021/06/19 03:18:15;;;;;;;5.30;2.67;;;;;;;;;;5039637;28;20423;-78
2021/06/19 03:20:41;;;;;;;5.37;2.83;;;;;;;;;;5022445;28;20206;-78
2021/06/19 03:23:07;;;;;;;3.00;2.70;;;;;;;;;;5022670;28;20426;-78
2021/06/19 03:25:34;;;;;;;2.67;2.47;;;;;;;;;;5021449;28;20441;-78
2021/06/19 03:28:01;;;;;;;3.22;3.03;;;;;;;;;;5018243;28;20433;-78
2021/06/19 03:30:28;;;;;;;2.67;2.47;;;;;;;;;;5024560;28;20179;-78
2021/06/19 03:32:54;;;;;;;2.95;2.75;;;;;;;;;;5022655;28;20634;-78
2021/06/19 03:35:20;;;;;;;3.00;2.42;;;;;;;;;;5022356;28;20190;-78
2021/06/19 03:37:47;;;;;;;4.38;2.30;;;;;;;;;;5023613;28;20189;-78
2021/06/19 03:40:14;;;;;;;2.60;2.42;;;;;;;;;;5023559;28;20182;-78
2021/06/19 03:42:40;;;;;;;3.58;2.70;;;;;;;;;;5025060;28;20343;-78
2021/06/19 03:45:07;;;;;;;3.40;3.05;;;;;;;;;;5020871;28;20199;-78
2021/06/19 03:47:33;;;;;;;3.10;2.90;;;;;;;;;;5018285;28;20225;-78
2021/06/19 03:49:59;;;;;;;3.13;2.93;;;;;;;;;;5022024;28;20551;-78
2021/06/19 03:52:25;;;;;;;2.90;2.70;;;;;;;;;;5023994;28;20483;-78
2021/06/19 03:54:51;;;;;;;3.00;2.80;;;;;;;;;;5020002;28;20214;-78
2021/06/19 03:57:24;;;;;;;2.78;2.50;;;;;;;;;;5039255;28;20632;-77
2021/06/19 03:59:51;;;;;;;2.92;2.55;;;;;;;;;;5020498;28;20242;-78
2021/06/19 04:02:17;;;;;;;3.85;2.35;;;;;;;;;;5016523;28;20193;-78
2021/06/19 04:04:43;;;;;;;2.95;2.75;;;;;;;;;;5021305;28;20222;-78
2021/06/19 04:07:09;;;;;;;3.85;2.70;;;;;;;;;;5023227;28;20197;-78
2021/06/19 04:09:35;;;;;;;3.23;2.70;;;;;;;;;;5022094;28;20209;-78
2021/06/19 04:12:01;;;;;;;3.15;2.95;;;;;;;;;;5037254;28;21030;-78
2021/06/19 04:14:27;;;;;;;6.37;2.90;;;;;;;;;;5021708;28;20182;-78
2021/06/19 04:16:53;;;;;;;2.50;2.30;;;;;;;;;;5022459;28;20514;-78
2021/06/19 04:19:19;;;;;;;3.47;2.90;;;;;;;;;;5023445;28;20406;-78
2021/06/19 04:21:45;;;;;;;2.30;2.20;;;;;;;;;;5022485;28;20429;-78
2021/06/19 04:24:11;;;;;;;3.50;2.97;;;;;;;;;;5038261;28;20457;-78
2021/06/19 04:26:37;;;;;;;3.03;2.75;;;;;;;;;;5018914;28;20446;-78
2021/06/19 04:29:03;;;;;;;2.85;2.65;;;;;;;;;;5015905;28;20206;-78
2021/06/19 04:31:31;;;;;;;3.35;2.75;;;;;;;;;;5022447;28;20208;-78
2021/06/19 04:33:58;;;;;;;3.67;3.38;;;;;;;;;;5021689;28;20186;-78
2021/06/19 04:36:24;;;;;;;3.10;2.90;;;;;;;;;;5025063;28;20238;-78
2021/06/19 04:38:50;;;;;;;3.20;3.00;;;;;;;;;;5021757;28;20367;-78
2021/06/19 04:44:17;;;;;;;3.17;2.88;;;;;;;;;;5020897;28;20448;-78
2021/06/19 04:46:43;;;;;;;3.00;2.78;;;;;;;;;;5020281;28;20217;-78
2021/06/19 04:49:09;;;;;;;3.10;2.90;;;;;;;;;;5021155;28;20230;-78
2021/06/19 04:51:35;;;;;;;3.97;3.33;;;;;;;;;;5023951;28;20425;-78
2021/06/19 04:54:01;;;;;;;9.33;3.17;;;;;;;;;;5021920;28;20425;-78
2021/06/19 04:56:27;;;;;;;2.93;2.83;;;;;;;;;;5019946;28;20437;-78
2021/06/19 04:58:53;;;;;;;3.37;3.10;;;;;;;;;;5021193;28;20441;-78
2021/06/19 05:01:19;;;;;;;3.00;2.80;;;;;;;;;;5020550;28;20442;-78
2021/06/19 05:03:45;;;;;;;2.80;2.60;;;;;;;;;;5021429;28;20432;-78
2021/06/19 05:06:11;;;;;;;3.53;3.00;;;;;;;;;;5037012;28;20433;-78
2021/06/19 05:08:36;;;;;;;3.50;3.30;;;;;;;;;;5018813;28;20441;-78
2021/06/19 05:11:02;;;;;;;2.87;2.67;;;;;;;;;;5013327;28;20436;-78
2021/06/19 05:13:28;;;;;;;2.80;2.60;;;;;;;;;;5020886;28;20433;-78
2021/06/19 05:15:54;;;;;;;2.80;2.53;;;;;;;;;;5021554;28;20433;-78
2021/06/19 05:18:20;;;;;;;4.93;3.63;;;;;;;;;;5023216;28;20385;-78
2021/06/19 05:20:47;;;;;;;3.47;3.28;;;;;;;;;;5018929;28;20608;-78
2021/06/19 05:23:13;;;;;;;4.00;3.70;;;;;;;;;;5016698;28;20183;-78
2021/06/19 05:25:39;;;;;;;3.37;3.10;;;;;;;;;;5020228;28;20193;-78
2021/06/19 05:28:05;;;;;;;3.30;3.10;;;;;;;;;;5020935;28;20460;-78
2021/06/19 05:30:32;;;;;;;3.55;3.35;;;;;;;;;;5023893;28;20484;-78
2021/06/19 05:32:58;;;;;;;3.85;3.53;;;;;;;;;;5036242;28;20216;-78
2021/06/19 05:35:24;;;;;;;4.38;2.95;;;;;;;;;;5021943;28;20258;-78
2021/06/19 05:37:50;;;;;;;4.80;3.20;;;;;;;;;;5021768;28;20244;-79
2021/06/19 05:40:17;;;;;;;3.55;3.35;;;;;;;;;;5021876;28;20533;-79
2021/06/19 05:42:43;;;;;;;4.07;3.78;;;;;;;;;;5020779;28;20179;-79
2021/06/19 05:45:10;;;;;;;3.70;3.40;;;;;;;;;;5021948;28;20179;-79
2021/06/19 05:47:36;;;;;;;4.13;3.10;;;;;;;;;;5020936;28;20313;-78
2021/06/19 05:50:02;;;;;;;2.93;2.63;;;;;;;;;;5019684;28;20231;-78
2021/06/19 05:52:28;;;;;;;3.40;3.10;;;;;;;;;;5022026;28;20437;-79
2021/06/19 05:54:54;;;;;;;4.70;3.22;;;;;;;;;;5020059;28;20183;-79
2021/06/19 05:57:20;;;;;;;3.13;2.93;;;;;;;;;;5022175;28;20656;-79
2021/06/19 05:59:46;;;;;;;3.90;3.25;;;;;;;;;;5020392;28;20454;-78
2021/06/19 06:02:12;;;;;;;4.50;3.00;;;;;;;;;;5018364;28;20643;-79
2021/06/19 06:04:38;;;;;;;4.30;2.87;;;;;;;;;;5011708;28;20214;-79
2021/06/19 06:07:04;;;;;;;2.60;2.40;;;;;;;;;;5020285;28;20582;-79
2021/06/19 06:09:30;;;;;;;3.17;2.90;;;;;;;;;;5021992;28;20212;-78
2021/06/19 06:11:56;;;;;;;3.37;3.10;;;;;;;;;;5021197;28;20183;-79
2021/06/19 06:14:22;;;;;;;2.88;2.67;;;;;;;;;;5017205;28;20782;-79
2021/06/19 06:16:48;;;;;;;3.13;2.90;;;;;;;;;;5020194;28;20198;-79
2021/06/19 06:19:16;;;;;;;3.25;2.95;;;;;;;;;;5024326;28;20434;-79
2021/06/19 06:21:42;;;;;;;3.38;3.08;;;;;;;;;;5024239;28;20183;-79
2021/06/19 06:24:08;;;;;;;3.42;3.20;;;;;;;;;;5025458;28;20198;-79
2021/06/19 06:26:34;;;;;;;4.10;2.80;;;;;;;;;;5024031;28;20201;-80
2021/06/19 06:29:00;;;;;;;2.90;2.70;;;;;;;;;;5020554;28;20216;-79
2021/06/19 06:31:26;;;;;;;2.67;2.50;;;;;;;;;;5031341;28;20178;-79
2021/06/19 06:33:52;;;;;;;4.50;2.17;;;;;;;;;;5024017;28;20439;-79
2021/06/19 06:36:18;;;;;;;12.55;3.00;;;;;;;;;;5034211;28;20396;-78
2021/06/19 06:38:44;;;;;;;2.90;2.60;;;;;;;;;;5024309;28;20191;-78
2021/06/19 06:41:11;;;;;;;2.70;2.40;;;;;;;;;;5029261;28;20447;-78
2021/06/19 06:43:37;;;;;;;2.85;2.22;;;;;;;;;;5023532;28;20461;-78
2021/06/19 06:46:03;;;;;;;2.92;2.72;;;;;;;;;;5023266;28;20224;-78
2021/06/19 06:48:29;;;;;;;4.50;3.00;;;;;;;;;;5021744;28;20271;-78
2021/06/19 06:50:59;;;;;;;2.80;2.60;;;;;;;;;;5023667;28;20805;-78
2021/06/19 06:53:25;;;;;;;7.57;5.22;;;;;;;;;;5035401;28;20184;-76
2021/06/19 06:55:51;;;;;;;3.50;2.80;;;;;;;;;;5014378;28;20252;-76
2021/06/19 06:58:17;;;;;;;5.93;3.70;;;;;;;;;;5035172;28;20186;-76
2021/06/19 07:00:43;;;;;;;3.43;3.13;;;;;;;;;;5023295;28;20413;-77
2021/06/19 07:03:09;;;;;;;3.93;3.03;;;;;;;;;;5024723;28;20393;-76
2021/06/19 07:05:35;;;;;;;3.75;3.45;;;;;;;;;;5024732;28;20444;-77
2021/06/19 07:08:01;;;;;;;3.08;2.75;;;;;;;;;;5022907;28;20208;-76
2021/06/19 07:10:27;;;;;;;3.42;2.67;;;;;;;;;;5023032;28;20227;-77
2021/06/19 07:12:53;;;;;;;2.40;2.20;;;;;;;;;;5020092;28;20717;-77
2021/06/19 07:15:19;;;;;;;3.40;3.10;;;;;;;;;;5018281;28;20396;-76
2021/06/19 07:17:47;;;;;;;3.30;3.10;;;;;;;;;;5022191;28;20443;-76
2021/06/19 07:20:14;;;;;;;3.50;3.15;;;;;;;;;;5021149;28;20206;-76
2021/06/19 07:22:40;;;;;;;3.03;2.65;;;;;;;;;;5033854;28;20188;-76
2021/06/19 07:25:07;;;;;;;2.80;2.60;;;;;;;;;;5019669;28;20229;-76
2021/06/19 07:27:34;;;;;;;3.03;2.30;;;;;;;;;;5022032;28;20208;-76
2021/06/19 07:30:00;;;;;;;3.50;3.20;;;;;;;;;;5019898;28;20204;-76
2021/06/19 07:32:26;;;;;;;2.72;2.53;;;;;;;;;;5029866;28;20193;-76
2021/06/19 07:34:52;;;;;;;3.00;2.80;;;;;;;;;;5028564;28;20187;-76
2021/06/19 07:37:18;;;;;;;4.10;3.22;;;;;;;;;;5023110;28;20184;-76
2021/06/19 07:39:44;;;;;;;3.10;2.80;;;;;;;;;;5022314;28;20199;-75
2021/06/19 07:42:10;;;;;;;3.65;3.35;;;;;;;;;;5036354;28;20208;-75
2021/06/19 07:44:36;;;;;;;6.15;2.83;;;;;;;;;;5026542;28;20205;-76
2021/06/19 07:47:02;;;;;;;3.03;2.60;;;;;;;;;;5023269;28;20307;-75
2021/06/19 07:49:29;;;;;;;3.17;2.87;;;;;;;;;;5022801;28;20468;-75
2021/06/19 07:51:55;;;;;;;2.72;2.50;;;;;;;;;;5023521;28;20504;-76
2021/06/19 07:54:21;;;;;;;3.10;2.90;;;;;;;;;;5024567;28;20177;-76
2021/06/19 07:56:47;;;;;;;3.08;2.88;;;;;;;;;;5023395;28;20200;-75
2021/06/19 07:59:14;;;;;;;4.90;2.90;;;;;;;;;;5022267;28;20284;-75
2021/06/19 08:01:40;;;;;;;5.65;3.13;;;;;;;;;;5026422;28;20404;-75
2021/06/19 08:04:06;;;;;;;3.53;3.22;;;;;;;;;;5019511;28;20266;-75
2021/06/19 08:06:32;;;;;;;4.50;3.88;;;;;;;;;;5022601;28;20204;-75
2021/06/19 08:08:58;;;;;;;5.10;3.03;;;;;;;;;;5020036;28;20207;-76
2021/06/19 08:11:26;;;;;;;3.92;2.85;;;;;;;;;;5023475;28;20418;-76
2021/06/19 08:13:53;;;;;;;4.70;3.10;;;;;;;;;;5020550;28;20180;-75
2021/06/19 08:16:19;;;;;;;4.70;3.30;;;;;;;;;;5011880;28;20194;-75
2021/06/19 08:18:46;;;;;;;3.63;3.30;;;;;;;;;;5023132;28;20176;-74
2021/06/19 08:21:12;;;;;;;3.75;3.42;;;;;;;;;;5023358;28;20167;-75
2021/06/19 08:23:38;;;;;;;3.92;3.10;;;;;;;;;;5019342;28;20211;-75
2021/06/19 08:26:04;;;;;;;3.97;3.57;;;;;;;;;;5014619;28;20649;-75
2021/06/19 08:28:32;;;;;;;6.53;3.88;;;;;;;;;;5022734;28;20481;-75
2021/06/19 08:30:58;;;;;;;4.90;4.40;;;;;;;;;;5021005;28;20209;-75
2021/06/19 08:33:24;;;;;;;5.55;4.53;;;;;;;;;;5024962;28;20188;-75
2021/06/19 08:35:50;;;;;;;4.95;4.53;;;;;;;;;;5019486;28;20262;-75
2021/06/19 08:38:16;;;;;;;3.97;3.67;;;;;;;;;;5016869;28;20186;-74
2021/06/19 08:40:42;;;;;;;6.10;5.45;;;;;;;;;;5022020;28;20444;-75
2021/06/19 08:43:08;;;;;;;5.05;4.65;;;;;;;;;;5021951;28;20178;-75
2021/06/19 08:45:34;;;;;;;4.90;4.30;;;;;;;;;;5022922;28;20259;-75
2021/06/19 08:48:01;;;;;;;5.53;4.85;;;;;;;;;;5037072;28;20433;-75
2021/06/19 08:50:28;;;;;;;8.68;5.13;;;;;;;;;;5019223;28;20230;-75
2021/06/19 08:52:54;;;;;;;7.53;4.90;;;;;;;;;;5013830;28;20176;-74
2021/06/19 08:55:20;;;;;;;5.27;4.77;;;;;;;;;;5022247;28;20365;-75
2021/06/19 08:57:46;;;;;;;4.20;3.85;;;;;;;;;;5021818;28;20410;-75
2021/06/19 09:00:13;;;;;;;4.65;4.25;;;;;;;;;;5037701;28;20189;-75
2021/06/19 09:02:40;;;;;;;5.80;4.95;;;;;;;;;;5018922;28;20192;-75
2021/06/19 09:05:08;;;;;;;4.60;4.20;;;;;;;;;;5014149;28;20203;-75
2021/06/19 09:07:47;;;;;;;5.85;4.45;;;;;;;;;;5019922;28;20181;-75
2021/06/19 09:10:18;;;;;;;4.97;4.43;;;;;;;;;;5020735;28;20224;-75
2021/06/19 09:12:59;;;;;;;4.47;3.83;;;;;;;;;;5021880;28;20174;-74
2021/06/19 09:15:26;;;;;;;5.10;3.83;;;;;;;;;;5024143;28;20280;-75
2021/06/19 09:18:09;;;;;;;4.68;3.70;;;;;;;;;;5020893;28;20231;-75
2021/06/19 09:20:35;;;;;;;3.90;3.50;;;;;;;;;;5018225;28;20240;-75
2021/06/19 09:23:08;;;;;;;5.10;4.30;;;;;;;;;;5015077;28;20623;-75
2021/06/19 09:25:34;;;;;;;3.72;3.40;;;;;;;;;;5021715;28;20415;-75
2021/06/19 09:28:00;;;;;;;4.53;4.13;;;;;;;;;;5020155;28;20187;-75
2021/06/19 09:30:26;;;;;;;4.83;4.37;;;;;;;;;;5039156;28;20487;-75
2021/06/19 09:32:56;;;;;;;4.13;3.73;;;;;;;;;;5019178;28;20924;-75
2021/06/19 09:35:31;;;;;;;3.87;3.57;;;;;;;;;;5015408;28;20536;-75
2021/06/19 09:38:08;;;;;;;7.50;4.17;;;;;;;;;;5021905;28;20468;-75
2021/06/19 09:40:35;;;;;;;5.50;5.00;;;;;;;;;;5021482;28;20445;-75
2021/06/19 09:43:12;;;;;;;4.70;3.93;;;;;;;;;;5021285;28;20434;-75
2021/06/19 09:45:41;;;;;;;5.37;4.97;;;;;;;;;;5022360;28;20404;-75
2021/06/19 09:48:22;;;;;;;4.40;4.10;;;;;;;;;;5021987;28;20457;-75
2021/06/19 09:51:08;;;;;;;4.40;4.00;;;;;;;;;;5020103;28;20909;-75
2021/06/19 09:53:34;;;;;;;4.43;4.13;;;;;;;;;;5021087;28;20401;-75
2021/06/19 09:56:05;;;;;;;4.67;4.27;;;;;;;;;;5017911;28;20974;-75
2021/06/19 09:58:41;;;;;;;5.50;5.00;;;;;;;;;;5026005;28;20404;-75
2021/06/19 10:01:07;;;;;;;5.30;3.90;;;;;;;;;;5024722;28;20407;-75
2021/06/19 10:03:49;;;;;;;5.37;4.87;;;;;;;;;;5027109;28;20766;-76
2021/06/19 10:06:15;;;;;;;4.37;3.97;;;;;;;;;;5026315;28;20471;-76
2021/06/19 10:08:43;;;;;;;5.20;4.70;;;;;;;;;;5023582;28;20777;-75
2021/06/19 10:11:09;;;;;;;5.40;4.90;;;;;;;;;;5021723;28;20432;-75
2021/06/19 10:13:35;;;;;;;5.67;5.10;;;;;;;;;;5014831;28;20399;-75
2021/06/19 10:16:03;;;;;;;5.80;5.00;;;;;;;;;;5024551;28;20437;-76
2021/06/19 10:18:29;;;;;;;5.20;4.80;;;;;;;;;;5025817;28;20388;-76
2021/06/19 10:20:55;;;;;;;4.13;3.83;;;;;;;;;;5023427;28;20444;-76
2021/06/19 10:23:21;;;;;;;4.70;4.30;;;;;;;;;;5024189;28;20429;-77
2021/06/19 10:25:48;;;;;;;7.23;6.50;;;;;;;;;;5023678;28;20481;-77
2021/06/19 10:28:16;;;;;;;6.07;5.67;;;;;;;;;;5024268;28;20401;-77
2021/06/19 10:30:42;;;;;;;10.07;7.60;;;;;;;;;;5024797;28;20409;-76
2021/06/19 10:33:28;;;;;;;6.67;5.73;;;;;;;;;;5024569;28;20479;-76
2021/06/19 10:35:56;;;;;;;6.37;4.83;;;;;;;;;;5024001;28;20878;-76
2021/06/19 10:38:22;;;;;;;6.07;5.30;;;;;;;;;;5026445;28;20432;-76
2021/06/19 10:40:55;;;;;;;5.90;5.37;;;;;;;;;;5024079;28;21091;-76
2021/06/19 10:43:22;;;;;;;7.10;6.50;;;;;;;;;;5024592;28;20446;-76
2021/06/19 10:45:48;;;;;;;7.97;5.63;;;;;;;;;;5023881;28;20955;-76
2021/06/19 10:48:18;;;;;;;6.67;6.07;;;;;;;;;;5023947;28;20464;-76
2021/06/19 10:50:46;;;;;;;6.63;5.33;;;;;;;;;;5022847;28;20928;-75
2021/06/19 10:53:16;;;;;;;5.93;5.43;;;;;;;;;;5021682;28;20460;-76
2021/06/19 10:55:45;;;;;;;6.60;6.00;;;;;;;;;;5016518;28;20461;-76
2021/06/19 10:58:20;;;;;;;6.50;6.00;;;;;;;;;;5023749;28;20424;-76
2021/06/19 11:00:53;;;;;;;7.53;6.70;;;;;;;;;;5023749;28;20430;-76
2021/06/19 11:03:38;;;;;;;10.43;6.80;;;;;;;;;;5040467;28;20791;-76
2021/06/19 11:06:21;;;;;;;7.67;6.50;;;;;;;;;;5040072;28;20869;-76
2021/06/19 11:08:59;;;;;;;7.80;7.10;;;;;;;;;;5019845;28;20467;-77
2021/06/19 11:11:44;;;;;;;6.73;6.13;;;;;;;;;;5023534;28;20422;-76
2021/06/19 11:14:10;;;;;;;5.97;5.33;;;;;;;;;;5024843;28;20436;-76
2021/06/19 11:16:36;;;;;;;8.70;6.67;;;;;;;;;;5023592;28;20471;-76
2021/06/19 11:19:02;;;;;;;6.40;5.90;;;;;;;;;;5024562;28;20459;-76
2021/06/19 11:21:30;;;;;;;8.47;7.57;;;;;;;;;;5025776;28;20439;-76
2021/06/19 11:24:02;;;;;;;5.93;5.43;;;;;;;;;;5019967;28;20433;-76
2021/06/19 11:26:49;;;;;;;6.90;6.20;;;;;;;;;;5023162;28;20456;-76
2021/06/19 11:29:34;;;;;;;6.20;5.70;;;;;;;;;;5023782;28;20476;-76
2021/06/19 11:32:19;;;;;;;7.73;7.10;;;;;;;;;;5021905;28;20535;-76
2021/06/19 11:34:45;;;;;;;6.93;6.23;;;;;;;;;;5023729;28;20454;-76
2021/06/19 11:37:11;;;;;;;7.10;6.40;;;;;;;;;;5023394;28;20445;-76
2021/06/19 11:39:37;;;;;;;6.20;5.70;;;;;;;;;;5023971;28;20436;-76
2021/06/19 11:42:04;;;;;;;5.77;5.10;;;;;;;;;;5023039;28;20425;-76
2021/06/19 11:44:33;;;;;;;6.23;5.73;;;;;;;;;;5020412;28;20469;-77
2021/06/19 11:47:01;;;;;;;5.73;5.23;;;;;;;;;;5021291;28;20465;-77
2021/06/19 11:49:27;;;;;;;6.83;6.30;;;;;;;;;;5021992;28;20472;-76
2021/06/19 11:51:54;;;;;;;7.10;6.30;;;;;;;;;;5021317;28;20444;-77
2021/06/19 11:54:21;;;;;;;6.50;5.80;;;;;;;;;;5040326;28;20569;-77
2021/06/19 11:56:47;;;;;;;7.10;6.10;;;;;;;;;;5019758;28;20517;-76
2021/06/19 11:59:14;;;;;;;7.80;6.00;;;;;;;;;;5016588;28;20433;-76
2021/06/19 12:01:41;;;;;;;5.90;5.40;;;;;;;;;;5022283;28;20443;-76
2021/06/19 12:04:10;;;;;;;5.23;4.80;;;;;;;;;;5020483;28;20465;-76
2021/06/19 12:06:39;;;;;;;6.23;5.63;;;;;;;;;;5023094;28;20440;-76
2021/06/19 12:09:09;;;;;;;4.53;4.10;;;;;;;;;;5024051;28;20463;-76
2021/06/19 12:11:36;;;;;;;4.30;3.90;;;;;;;;;;5019639;28;20453;-76
2021/06/19 12:14:15;;;;;;;4.70;4.30;;;;;;;;;;5014726;28;20467;-76
2021/06/19 12:16:41;;;;;;;5.00;4.07;;;;;;;;;;5022768;28;20455;-76
2021/06/19 12:19:07;;;;;;;5.57;5.10;;;;;;;;;;5021160;28;20543;-76
2021/06/19 12:21:37;;;;;;;6.33;4.40;;;;;;;;;;5024627;28;20478;-76
2021/06/19 12:24:06;;;;;;;4.53;4.23;;;;;;;;;;5022349;28;20493;-76
2021/06/19 12:26:32;;;;;;;4.70;4.30;;;;;;;;;;5021228;28;20436;-76
2021/06/19 12:28:58;;;;;;;5.87;4.20;;;;;;;;;;5019674;28;20975;-77
2021/06/19 12:31:26;;;;;;;4.80;4.30;;;;;;;;;;5008926;28;20454;-76
2021/06/19 12:34:02;;;;;;;4.40;4.00;;;;;;;;;;5022930;28;20413;-76
2021/06/19 12:36:29;;;;;;;5.20;4.70;;;;;;;;;;5023750;28;20436;-76
2021/06/19 12:38:55;;;;;;;4.93;4.53;;;;;;;;;;5018541;28;20437;-77
2021/06/19 12:41:21;;;;;;;5.07;4.67;;;;;;;;;;5022213;28;20779;-77
2021/06/19 12:43:48;;;;;;;5.10;4.67;;;;;;;;;;5020526;28;20439;-78
2021/06/19 12:46:18;;;;;;;4.30;4.00;;;;;;;;;;5021728;28;20540;-76
2021/06/19 12:48:44;;;;;;;4.97;4.30;;;;;;;;;;5021592;28;20477;-76
2021/06/19 12:51:21;;;;;;;5.10;4.17;;;;;;;;;;5022278;28;20484;-76
2021/06/19 12:53:47;;;;;;;7.00;5.10;;;;;;;;;;5015517;28;20480;-76
2021/06/19 12:56:13;;;;;;;3.93;3.60;;;;;;;;;;5018135;28;20444;-77
2021/06/19 12:58:43;;;;;;;4.23;3.83;;;;;;;;;;5017750;28;20436;-77
2021/06/19 13:01:25;;;;;;;5.70;4.30;;;;;;;;;;5017100;28;20471;-76
2021/06/19 13:03:52;;;;;;;5.73;4.47;;;;;;;;;;5017101;28;20967;-77
2021/06/19 13:06:28;;;;;;;5.17;4.77;;;;;;;;;;5018408;28;21138;-77
2021/06/19 13:08:55;;;;;;;8.70;4.47;;;;;;;;;;5017353;28;20496;-76
2021/06/19 13:11:33;;;;;;;4.70;4.40;;;;;;;;;;5015509;28;20453;-77
2021/06/19 13:14:09;;;;;;;4.30;3.97;;;;;;;;;;5016250;28;20418;-77
2021/06/19 13:16:39;;;;;;;4.60;3.70;;;;;;;;;;5017115;28;21030;-77
2021/06/19 13:19:06;;;;;;;4.83;4.43;;;;;;;;;;5016603;28;21210;-77
2021/06/19 13:21:33;;;;;;;4.53;4.23;;;;;;;;;;5017700;28;20425;-79
2021/06/19 13:24:17;;;;;;;4.70;4.20;;;;;;;;;;5033833;28;20417;-77
2021/06/19 13:26:43;;;;;;;4.33;4.03;;;;;;;;;;5016871;28;20441;-77
2021/06/19 13:29:09;;;;;;;4.40;4.00;;;;;;;;;;5016566;28;20536;-76
2021/06/19 13:31:39;;;;;;;4.37;3.40;;;;;;;;;;5018887;28;20449;-77
2021/06/19 13:34:06;;;;;;;3.60;3.40;;;;;;;;;;5018949;28;20441;-77
2021/06/19 13:36:39;;;;;;;4.70;4.37;;;;;;;;;;5018049;28;20409;-77
2021/06/19 13:39:06;;;;;;;4.47;4.03;;;;;;;;;;5019340;28;20512;-76
2021/06/19 13:41:32;;;;;;;4.00;3.70;;;;;;;;;;5029034;28;20451;-77
2021/06/19 13:43:59;;;;;;;4.50;4.10;;;;;;;;;;5018391;28;20440;-80
2021/06/19 13:46:25;;;;;;;5.30;4.80;;;;;;;;;;5017038;28;20487;-77
2021/06/19 13:48:51;;;;;;;4.27;3.87;;;;;;;;;;5017082;28;21000;-77
2021/06/19 13:51:17;;;;;;;4.30;4.00;;;;;;;;;;5015884;28;20443;-80
2021/06/19 13:53:44;;;;;;;4.13;3.87;;;;;;;;;;5017824;28;20437;-78
2021/06/19 13:56:10;;;;;;;4.50;4.10;;;;;;;;;;5026871;28;20465;-78
2021/06/19 13:58:36;;;;;;;4.37;3.97;;;;;;;;;;5015530;28;20689;-80
2021/06/19 14:01:03;;;;;;;4.23;3.87;;;;;;;;;;5017759;28;20875;-78
2021/06/19 14:03:33;;;;;;;5.13;3.80;;;;;;;;;;5020352;28;20418;-78
2021/06/19 14:05:59;;;;;;;3.70;3.50;;;;;;;;;;5018449;28;20929;-80
2021/06/19 14:08:27;;;;;;;3.93;3.63;;;;;;;;;;5019086;28;20429;-77
2021/06/19 14:10:53;;;;;;;4.43;4.13;;;;;;;;;;5017790;28;20444;-76
2021/06/19 14:13:20;;;;;;;4.97;4.57;;;;;;;;;;5018306;28;20443;-76
2021/06/19 14:15:46;;;;;;;4.57;3.90;;;;;;;;;;5017018;28;20436;-77
2021/06/19 14:18:12;;;;;;;4.20;3.90;;;;;;;;;;5018327;28;20451;-78
2021/06/19 14:20:38;;;;;;;4.60;4.13;;;;;;;;;;5017305;28;20448;-79
2021/06/19 14:23:04;;;;;;;4.30;4.00;;;;;;;;;;5017147;28;20413;-78
2021/06/19 14:25:30;;;;;;;4.40;3.90;;;;;;;;;;5015744;28;20479;-79
2021/06/19 14:27:57;;;;;;;4.67;4.20;;;;;;;;;;5016306;28;20452;-79
2021/06/19 14:30:23;;;;;;;5.10;4.30;;;;;;;;;;5017684;28;20457;-78
2021/06/19 14:32:49;;;;;;;5.10;3.53;;;;;;;;;;5015366;28;20448;-77
2021/06/19 14:35:15;;;;;;;4.30;4.00;;;;;;;;;;5017208;28;20525;-77
2021/06/19 14:37:47;;;;;;;3.77;3.47;;;;;;;;;;5017312;28;20449;-77
2021/06/19 14:40:13;;;;;;;7.07;3.90;;;;;;;;;;5018428;28;20515;-77
2021/06/19 14:42:39;;;;;;;4.20;3.90;;;;;;;;;;5018983;28;20460;-76
2021/06/19 14:45:05;;;;;;;3.70;3.40;;;;;;;;;;5020978;28;20429;-77
2021/06/19 14:47:31;;;;;;;4.23;3.87;;;;;;;;;;5019048;28;20469;-76